Time;durP1;ratioP1;P1;durP2;ratioP2;P2;SDS_P1;SDS_P2;PMS_P1;PMS_P2;Temp;Humidity;BMP_temperature;BMP_pressure;BME280_temperature;BME280_humidity;BME280_pressure;Samples;Min_cycle;Max_cycle;Signal;HPM_P1;HPM_P2
2022/06/08 00:00:56;;;;;;;1999.90;999.90;;;12.40;99.90;;;;;;5025743;28;20045;-88
2022/06/08 00:03:37;;;;;;;1999.90;999.90;;;12.40;99.90;;;;;;5031768;28;20025;-88
2022/06/08 00:06:05;;;;;;;1999.90;999.90;;;12.40;99.90;;;;;;5034258;28;20028;-88
2022/06/08 00:08:31;;;;;;;1999.90;999.90;;;12.30;99.90;;;;;;5041168;28;20037;-88
2022/06/08 00:10:57;;;;;;;1999.90;999.90;;;12.20;99.90;;;;;;5019343;28;20038;-88
2022/06/08 00:13:22;;;;;;;1999.90;999.90;;;12.20;99.90;;;;;;5040168;28;20037;-88
2022/06/08 00:15:48;;;;;;;1999.90;999.90;;;12.10;99.90;;;;;;5020544;28;20032;-89
2022/06/08 00:18:14;;;;;;;1999.90;999.90;;;12.10;99.90;;;;;;5037763;28;20078;-88
2022/06/08 00:20:40;;;;;;;1999.90;999.90;;;12.00;99.90;;;;;;5038290;28;20517;-87
2022/06/08 00:23:06;;;;;;;1999.90;999.90;;;12.00;99.90;;;;;;5037024;28;20021;-87
2022/06/08 00:25:32;;;;;;;1999.90;999.90;;;12.00;99.90;;;;;;5034103;28;20025;-88
2022/06/08 00:27:58;;;;;;;1999.90;999.90;;;12.00;99.90;;;;;;5031063;28;20030;-87
2022/06/08 00:30:24;;;;;;;1999.90;999.90;;;11.90;99.90;;;;;;5011170;28;20480;-87
2022/06/08 00:32:49;;;;;;;1999.90;999.90;;;11.80;99.90;;;;;;5029468;28;20535;-87
2022/06/08 00:35:15;;;;;;;1999.90;999.90;;;11.80;99.90;;;;;;5027570;28;20107;-87
2022/06/08 00:37:41;;;;;;;1999.90;999.90;;;11.80;99.90;;;;;;5039475;28;20032;-88
2022/06/08 00:40:10;;;;;;;1999.90;999.90;;;11.80;99.90;;;;;;5039609;28;20029;-88
2022/06/08 00:42:36;;;;;;;1999.90;999.90;;;11.90;99.90;;;;;;5039408;28;20239;-87
2022/06/08 00:45:09;;;;;;;1999.90;999.90;;;11.80;99.90;;;;;;5016167;28;20562;-87
2022/06/08 00:47:38;;;;;;;1999.90;999.90;;;11.80;99.90;;;;;;5038742;28;20087;-87
2022/06/08 00:50:11;;;;;;;1999.90;999.90;;;11.80;99.90;;;;;;5036252;28;20025;-87
2022/06/08 00:52:37;;;;;;;1999.90;999.90;;;11.80;99.90;;;;;;5032431;28;20025;-87
2022/06/08 00:55:06;;;;;;;1999.90;999.90;;;11.80;99.90;;;;;;5032348;28;20079;-88
2022/06/08 00:57:58;;;;;;;1999.90;999.90;;;11.80;99.90;;;;;;5032627;28;20056;-88
2022/06/08 01:00:33;;;;;;;1999.90;999.90;;;11.80;99.90;;;;;;5024861;28;20063;-88
2022/06/08 01:02:59;;;;;;;1999.90;999.90;;;11.80;99.90;;;;;;5029076;28;20029;-88
2022/06/08 01:05:40;;;;;;;1999.90;999.90;;;11.80;99.90;;;;;;5024394;28;20404;-88
2022/06/08 01:08:27;;;;;;;1999.90;999.90;;;11.80;99.90;;;;;;5027429;28;20033;-87
2022/06/08 01:10:56;;;;;;;1999.90;999.90;;;11.70;99.90;;;;;;5041997;28;20468;-87
2022/06/08 01:13:22;;;;;;;1999.90;999.90;;;11.70;99.90;;;;;;5038692;28;20025;-87
2022/06/08 01:15:49;;;;;;;1999.90;999.90;;;11.70;99.90;;;;;;5037755;28;20587;-87
2022/06/08 01:18:16;;;;;;;1999.90;999.90;;;11.60;99.90;;;;;;5035504;28;20033;-87
2022/06/08 01:20:52;;;;;;;1999.90;999.90;;;11.60;99.90;;;;;;5034894;28;20025;-87
2022/06/08 01:23:18;;;;;;;1999.90;999.90;;;11.60;99.90;;;;;;5045392;28;20076;-87
2022/06/08 01:26:09;;;;;;;1999.90;999.90;;;11.60;99.90;;;;;;5030579;28;20629;-87
2022/06/08 01:29:09;;;;;;;1999.90;999.90;;;11.60;99.90;;;;;;5031331;28;20484;-87
2022/06/08 01:32:06;;;;;;;1999.90;999.90;;;11.60;99.90;;;;;;5029071;28;20061;-87
2022/06/08 01:34:59;;;;;;;1999.90;999.90;;;11.70;99.90;;;;;;5023985;28;20513;-88
2022/06/08 01:37:43;;;;;;;1999.90;999.90;;;11.60;99.90;;;;;;5042386;28;20032;-88
2022/06/08 01:40:30;;;;;;;1999.90;999.90;;;11.60;99.90;;;;;;5039178;28;20653;-87
2022/06/08 01:43:01;;;;;;;1999.90;999.90;;;11.60;99.90;;;;;;5037961;28;20037;-88
2022/06/08 01:45:42;;;;;;;1999.90;999.90;;;11.60;99.90;;;;;;5037989;28;20091;-88
2022/06/08 01:48:17;;;;;;;1999.90;999.90;;;11.60;99.90;;;;;;5032326;28;20055;-87
2022/06/08 01:50:56;;;;;;;1999.90;999.90;;;11.50;99.90;;;;;;5033284;28;20025;-88
2022/06/08 01:53:25;;;;;;;1999.90;999.90;;;11.60;99.90;;;;;;5026853;28;20400;-87
2022/06/08 01:55:58;;;;;;;1999.90;999.90;;;11.60;99.90;;;;;;5029280;28;20734;-87
2022/06/08 01:58:48;;;;;;;1999.90;999.90;;;11.60;99.90;;;;;;5029109;28;20034;-88
2022/06/08 02:01:26;;;;;;;1999.90;999.90;;;11.50;99.90;;;;;;5032624;28;20096;-87
2022/06/08 02:04:07;;;;;;;1999.90;999.90;;;11.50;99.90;;;;;;5024693;28;20037;-86
2022/06/08 02:07:05;;;;;;;1999.90;999.90;;;11.50;99.90;;;;;;5035975;28;20480;-88
2022/06/08 02:09:54;;;;;;;1999.90;999.90;;;11.40;99.90;;;;;;5015282;28;20049;-87
2022/06/08 02:12:19;;;;;;;1999.90;999.90;;;11.40;99.90;;;;;;5010510;28;20527;-87
2022/06/08 02:14:58;;;;;;;1999.90;999.90;;;11.30;99.90;;;;;;5039350;28;20044;-87
2022/06/08 02:17:30;;;;;;;1999.90;999.90;;;11.30;99.90;;;;;;5040323;28;20034;-89
2022/06/08 02:20:07;;;;;;;1999.90;999.90;;;11.30;99.90;;;;;;5038734;28;20029;-87
2022/06/08 02:22:41;;;;;;;1999.90;999.90;;;11.30;99.90;;;;;;5037126;28;20092;-87
2022/06/08 02:25:28;;;;;;;1999.90;999.90;;;11.20;99.90;;;;;;5033620;28;20024;-88
2022/06/08 02:28:13;;;;;;;1999.90;999.90;;;11.20;99.90;;;;;;5029540;28;20033;-87
2022/06/08 02:30:49;;;;;;;1999.90;999.90;;;11.10;99.90;;;;;;5029640;28;20038;-87
2022/06/08 02:36:20;;;;;;;1999.90;999.90;;;11.00;99.90;;;;;;5041260;28;20139;-87
2022/06/08 02:39:03;;;;;;;1999.90;999.90;;;11.10;99.90;;;;;;5038808;28;20029;-87
2022/06/08 02:41:31;;;;;;;1999.90;999.90;;;11.00;99.90;;;;;;5039005;28;20103;-87
2022/06/08 02:44:01;;;;;;;1999.90;999.90;;;11.00;99.90;;;;;;5024312;28;20038;-88
2022/06/08 02:46:45;;;;;;;;;;;11.00;99.90;;;;;;5036937;28;20554;-87
2022/06/08 02:49:11;;;;;;;1999.90;999.90;;;10.90;99.90;;;;;;5039112;28;19970;-88
2022/06/08 02:51:42;;;;;;;1999.90;999.90;;;10.90;99.90;;;;;;5038731;28;20072;-86
2022/06/08 02:54:14;;;;;;;1999.90;999.90;;;10.80;99.90;;;;;;5035025;28;20048;-88
2022/06/08 02:56:52;;;;;;;1999.90;999.90;;;10.80;99.90;;;;;;5032964;28;20101;-87
2022/06/08 02:59:32;;;;;;;1999.90;999.90;;;10.80;99.90;;;;;;5030518;28;20509;-87
2022/06/08 03:02:11;;;;;;;1999.90;999.90;;;10.80;99.90;;;;;;5028926;28;20083;-87
2022/06/08 03:04:52;;;;;;;1999.90;999.90;;;10.80;99.90;;;;;;5028822;28;20041;-87
2022/06/08 03:07:25;;;;;;;1999.90;999.90;;;10.70;99.90;;;;;;5058152;28;20060;-87
2022/06/08 03:09:52;;;;;;;1999.90;999.90;;;10.70;99.90;;;;;;5041150;28;20071;-86
2022/06/08 03:12:27;;;;;;;1999.90;999.90;;;10.60;99.90;;;;;;5043666;28;20022;-87
2022/06/08 03:14:53;;;;;;;1999.90;999.90;;;10.70;99.90;;;;;;5040602;28;20033;-87
2022/06/08 03:17:24;;;;;;;1999.90;999.90;;;10.70;99.90;;;;;;5037066;28;20606;-86
2022/06/08 03:19:50;;;;;;;1999.90;999.90;;;10.60;99.90;;;;;;5039435;28;20041;-88
2022/06/08 03:22:16;;;;;;;1999.90;999.90;;;10.60;99.90;;;;;;5030139;28;20100;-88
2022/06/08 03:24:42;;;;;;;1999.90;999.90;;;10.60;99.90;;;;;;5019491;28;20132;-87
2022/06/08 03:27:09;;;;;;;1999.90;999.90;;;10.60;99.90;;;;;;5034879;28;20036;-87
2022/06/08 03:29:35;;;;;;;1999.90;999.90;;;10.60;99.90;;;;;;5033660;28;20044;-87
2022/06/08 03:32:00;;;;;;;1999.90;999.90;;;10.60;99.90;;;;;;5030988;28;20042;-87
2022/06/08 03:34:26;;;;;;;1999.90;999.90;;;10.50;99.90;;;;;;5027774;28;20026;-87
2022/06/08 03:36:52;;;;;;;1999.90;999.90;;;10.40;99.90;;;;;;5039698;28;20223;-87
2022/06/08 03:39:18;;;;;;;1999.90;999.90;;;10.40;99.90;;;;;;5040934;28;20491;-87
2022/06/08 03:41:44;;;;;;;1999.90;999.90;;;10.40;99.90;;;;;;5034107;28;20112;-87
2022/06/08 03:44:10;;;;;;;1999.90;999.90;;;10.50;99.90;;;;;;5034443;28;20530;-87
2022/06/08 03:46:40;;;;;;;1999.90;999.90;;;10.50;99.90;;;;;;5036314;28;20444;-87
2022/06/08 03:49:08;;;;;;;1999.90;999.90;;;10.60;99.90;;;;;;5034199;28;20035;-87
2022/06/08 03:51:35;;;;;;;1999.90;999.90;;;10.50;99.90;;;;;;5037048;28;20112;-87
2022/06/08 03:54:09;;;;;;;1999.90;999.90;;;10.60;99.90;;;;;;5029069;28;20039;-88
2022/06/08 03:56:37;;;;;;;1999.90;999.90;;;10.60;99.90;;;;;;5031881;28;20414;-87
2022/06/08 03:59:03;;;;;;;1999.90;999.90;;;10.70;99.90;;;;;;4992520;28;1140427;-87
2022/06/08 04:01:30;;;;;;;1999.90;999.90;;;10.80;99.90;;;;;;5028060;28;20084;-86
2022/06/08 04:03:57;;;;;;;1999.90;999.90;;;10.90;99.90;;;;;;5020667;28;20102;-87
2022/06/08 04:06:23;;;;;;;1999.90;999.90;;;10.90;99.90;;;;;;5038229;28;20465;-87
2022/06/08 04:08:49;;;;;;;1999.90;999.90;;;10.90;99.90;;;;;;5043607;28;20250;-87
2022/06/08 04:11:15;;;;;;;1999.90;999.90;;;11.00;99.90;;;;;;5036386;28;20029;-86
2022/06/08 04:13:41;;;;;;;1999.90;999.90;;;11.10;99.90;;;;;;5039141;28;20021;-87
2022/06/08 04:16:07;;;;;;;1999.90;999.90;;;11.30;99.90;;;;;;5034847;28;20043;-87
2022/06/08 04:18:33;;;;;;;1999.90;999.90;;;11.30;99.90;;;;;;5029410;28;20034;-86
2022/06/08 04:21:01;;;;;;;1999.90;999.90;;;11.40;99.90;;;;;;5035900;28;20738;-87
2022/06/08 04:23:29;;;;;;;1999.90;999.90;;;11.50;99.90;;;;;;5034167;28;20064;-88
2022/06/08 04:25:56;;;;;;;1999.90;999.90;;;11.70;99.90;;;;;;5016220;28;20091;-87
2022/06/08 04:28:23;;;;;;;1999.90;999.90;;;11.70;99.90;;;;;;5026414;28;20030;-88
2022/06/08 04:30:49;;;;;;;1999.90;999.90;;;11.90;99.90;;;;;;5028414;28;20405;-88
2022/06/08 04:33:15;;;;;;;1999.90;999.90;;;12.00;99.90;;;;;;5027485;28;20029;-87
2022/06/08 04:35:42;;;;;;;1999.90;999.90;;;12.00;99.90;;;;;;5035385;28;20040;-87
2022/06/08 04:38:08;;;;;;;1999.90;999.90;;;12.00;99.90;;;;;;5043817;28;20029;-86
2022/06/08 04:40:35;;;;;;;1999.90;999.90;;;12.00;99.90;;;;;;5041765;28;20043;-86
2022/06/08 04:43:00;;;;;;;1999.90;999.90;;;12.10;99.90;;;;;;5032945;28;20182;-87
2022/06/08 04:45:26;;;;;;;1999.90;999.90;;;12.10;99.90;;;;;;5038285;28;20029;-87
2022/06/08 04:47:52;;;;;;;1999.90;999.90;;;12.10;99.90;;;;;;5038203;28;20040;-87
2022/06/08 04:50:18;;;;;;;1999.90;999.90;;;12.20;99.90;;;;;;5035884;28;20029;-87
2022/06/08 04:52:44;;;;;;;1999.90;999.90;;;12.20;99.90;;;;;;5031325;28;20017;-88
2022/06/08 04:55:12;;;;;;;1999.90;999.90;;;12.20;99.90;;;;;;5033273;28;20278;-87
2022/06/08 04:57:38;;;;;;;1999.90;999.90;;;12.20;99.90;;;;;;5031281;28;20017;-87
2022/06/08 05:00:06;;;;;;;1999.90;999.90;;;12.20;99.90;;;;;;5025869;28;20061;-86
2022/06/08 05:02:44;;;;;;;1999.90;999.90;;;12.10;99.90;;;;;;5027830;28;20036;-86
2022/06/08 05:05:23;;;;;;;1999.90;999.90;;;12.00;99.90;;;;;;5041012;28;20025;-87
2022/06/08 05:07:49;;;;;;;1999.90;999.90;;;11.90;99.90;;;;;;5037685;28;20083;-87
2022/06/08 05:10:16;;;;;;;1999.90;999.90;;;12.00;99.90;;;;;;5039634;28;20559;-87
2022/06/08 05:12:42;;;;;;;1999.90;999.90;;;12.10;99.90;;;;;;5059906;28;20041;-86
2022/06/08 05:15:15;;;;;;;1999.90;999.90;;;12.10;99.90;;;;;;5038661;28;20119;-87
2022/06/08 05:17:40;;;;;;;1999.90;999.90;;;12.20;99.90;;;;;;5037964;28;20043;-87
2022/06/08 05:20:08;;;;;;;1999.90;999.90;;;12.20;99.90;;;;;;5033889;28;20465;-88
2022/06/08 05:22:36;;;;;;;1999.90;999.90;;;12.40;99.90;;;;;;5032457;28;20107;-87
2022/06/08 05:25:04;;;;;;;1999.90;999.90;;;12.50;99.90;;;;;;5032521;28;20040;-87
2022/06/08 05:27:30;;;;;;;1999.90;999.90;;;12.60;99.90;;;;;;5024454;28;20104;-87
2022/06/08 05:29:55;;;;;;;1999.90;999.90;;;12.60;99.90;;;;;;5028049;28;20454;-87
2022/06/08 05:32:22;;;;;;;1999.90;999.90;;;12.60;99.90;;;;;;5007308;28;20556;-88
2022/06/08 05:34:48;;;;;;;1999.90;999.90;;;12.70;99.90;;;;;;5028771;28;20587;-88
2022/06/08 05:37:14;;;;;;;1999.90;999.90;;;12.80;99.90;;;;;;5031052;28;20026;-87
2022/06/08 05:39:41;;;;;;;1999.90;999.90;;;12.80;99.90;;;;;;5035382;28;20076;-87
2022/06/08 05:42:07;;;;;;;1999.90;999.90;;;13.00;99.90;;;;;;5039915;28;20037;-87
2022/06/08 05:44:33;;;;;;;1999.90;999.90;;;13.00;99.90;;;;;;5036341;28;20404;-88
2022/06/08 05:46:59;;;;;;;1999.90;999.90;;;13.10;99.90;;;;;;5019991;28;20564;-86
2022/06/08 05:49:24;;;;;;;1999.90;999.90;;;13.30;99.90;;;;;;5028573;28;20059;-87
2022/06/08 05:51:50;;;;;;;1999.90;999.90;;;13.40;99.90;;;;;;5027087;28;20037;-87
2022/06/08 05:54:17;;;;;;;1999.90;999.90;;;13.40;99.90;;;;;;5013721;28;20408;-89
2022/06/08 05:56:42;;;;;;;1999.90;999.90;;;13.50;99.90;;;;;;5058496;28;20305;-88
2022/06/08 05:59:08;;;;;;;1999.90;999.90;;;13.60;99.90;;;;;;5021809;28;20037;-87
2022/06/08 06:01:35;;;;;;;1999.90;999.90;;;13.60;99.90;;;;;;5018598;28;20042;-87
2022/06/08 06:04:05;;;;;;;1999.90;999.90;;;13.80;99.90;;;;;;5036443;28;20116;-86
2022/06/08 06:06:31;;;;;;;1999.90;999.90;;;13.80;99.90;;;;;;5031709;28;20032;-88
2022/06/08 06:08:57;;;;;;;1999.90;999.90;;;13.90;99.90;;;;;;5024897;28;20769;-87
2022/06/08 06:11:23;;;;;;;1999.90;999.90;;;14.10;99.90;;;;;;5034253;28;20106;-88
2022/06/08 06:13:49;;;;;;;1025.28;504.83;;;14.00;99.90;;;;;;5034364;28;20397;-87
2022/06/08 06:16:14;;;;;;;1999.90;999.90;;;14.10;99.90;;;;;;5033500;28;20101;-88
2022/06/08 06:18:40;;;;;;;1999.90;999.90;;;14.20;99.90;;;;;;5025991;28;20059;-89
2022/06/08 06:21:06;;;;;;;1999.90;999.90;;;14.30;99.90;;;;;;5030323;28;20041;-88
2022/06/08 06:23:33;;;;;;;1999.90;999.90;;;14.30;99.90;;;;;;5033220;28;20057;-88
2022/06/08 06:25:59;;;;;;;1503.47;751.25;;;14.30;99.90;;;;;;5011902;28;20042;-88
2022/06/08 06:28:24;;;;;;;1999.90;999.90;;;14.50;99.90;;;;;;5028945;28;20489;-88
2022/06/08 06:30:50;;;;;;;1999.90;999.90;;;14.60;99.90;;;;;;5028723;28;20122;-88
2022/06/08 06:33:16;;;;;;;1999.90;999.90;;;14.80;99.90;;;;;;5035708;28;20104;-87
2022/06/08 06:35:42;;;;;;;1999.90;999.90;;;14.90;99.90;;;;;;5041243;28;20021;-88
2022/06/08 06:38:09;;;;;;;1999.90;999.90;;;15.10;99.90;;;;;;5040623;28;20029;-88
2022/06/08 06:40:36;;;;;;;1999.90;999.90;;;15.20;99.90;;;;;;5034223;28;20116;-88
2022/06/08 06:43:02;;;;;;;1999.90;999.90;;;15.30;99.90;;;;;;5030622;28;20037;-88
2022/06/08 06:45:29;;;;;;;1999.90;999.90;;;15.30;99.90;;;;;;5037231;28;20108;-88
2022/06/08 06:47:54;;;;;;;1999.90;999.90;;;15.40;99.90;;;;;;5024266;28;20510;-87
2022/06/08 06:50:21;;;;;;;1999.90;999.90;;;15.50;99.90;;;;;;5015063;28;20038;-88
2022/06/08 06:52:47;;;;;;;1999.90;999.90;;;15.60;99.90;;;;;;5032376;28;20421;-88
2022/06/08 06:55:23;;;;;;;1999.90;999.90;;;15.60;99.90;;;;;;5031498;28;20452;-88
2022/06/08 06:57:49;;;;;;;1999.90;999.90;;;15.70;99.90;;;;;;5032146;28;20035;-88
2022/06/08 07:00:16;;;;;;;1999.90;999.90;;;15.80;99.90;;;;;;5022814;28;20049;-86
2022/06/08 07:02:42;;;;;;;1999.90;999.90;;;15.90;99.90;;;;;;5009822;28;20401;-87
2022/06/08 07:05:19;;;;;;;1999.90;999.90;;;16.00;99.90;;;;;;5030051;28;20108;-89
2022/06/08 07:07:45;;;;;;;1999.90;999.90;;;16.20;99.90;;;;;;5024168;28;20797;-87
2022/06/08 07:10:11;;;;;;;1999.90;999.90;;;16.30;99.90;;;;;;5034337;28;20037;-89
2022/06/08 07:12:37;;;;;;;1999.90;999.90;;;16.50;99.90;;;;;;5037803;28;20063;-88
2022/06/08 07:15:04;;;;;;;1999.90;999.90;;;16.50;98.70;;;;;;5015436;28;20030;-88
2022/06/08 07:17:29;;;;;;;1999.90;999.90;;;16.60;96.90;;;;;;5029899;28;20405;-87
2022/06/08 07:19:55;;;;;;;1999.90;999.90;;;16.70;98.90;;;;;;5031796;28;20461;-88
2022/06/08 07:22:20;;;;;;;1999.90;999.90;;;16.80;97.80;;;;;;5033442;28;20567;-88
2022/06/08 07:24:46;;;;;;;1999.90;999.90;;;16.90;98.70;;;;;;5033077;28;20041;-88
2022/06/08 07:27:12;;;;;;;1999.90;999.90;;;16.90;98.50;;;;;;5034413;28;20029;-87
2022/06/08 07:29:38;;;;;;;1999.90;999.90;;;17.00;85.20;;;;;;5026237;28;20542;-87
2022/06/08 07:32:04;;;;;;;1999.90;999.90;;;17.10;86.60;;;;;;5032905;28;20201;-87
2022/06/08 07:34:30;;;;;;;1999.90;999.90;;;17.10;84.60;;;;;;5033539;28;20056;-88
2022/06/08 07:36:57;;;;;;;1999.90;999.90;;;17.30;90.90;;;;;;5042120;28;20126;-88
2022/06/08 07:39:23;;;;;;;1999.90;999.90;;;17.40;83.00;;;;;;5032264;28;20032;-88
2022/06/08 07:41:49;;;;;;;1999.90;999.90;;;17.50;87.90;;;;;;5036973;28;20036;-87
2022/06/08 07:44:16;;;;;;;1999.90;999.90;;;17.60;82.50;;;;;;5040167;28;20032;-87
2022/06/08 07:46:43;;;;;;;1999.90;999.90;;;17.60;78.20;;;;;;5035640;28;20122;-87
2022/06/08 07:52:01;;;;;;;1999.90;581.42;;;17.90;85.90;;;;;;5035010;28;20405;-87
2022/06/08 07:54:28;;;;;;;1999.90;999.90;;;17.80;75.00;;;;;;5033745;28;20033;-88
2022/06/08 07:56:54;;;;;;;1999.90;999.90;;;17.80;78.50;;;;;;5017341;28;20025;-88
2022/06/08 07:59:22;;;;;;;1815.53;625.67;;;17.90;95.00;;;;;;5029966;28;20807;-87
2022/06/08 08:01:48;;;;;;;1999.90;999.90;;;18.10;80.60;;;;;;5021066;28;20260;-87
2022/06/08 08:04:14;;;;;;;1472.32;545.97;;;18.10;70.20;;;;;;5056686;28;20506;-87
2022/06/08 08:06:40;;;;;;;1999.90;999.90;;;18.30;75.00;;;;;;5034356;28;20029;-88
2022/06/08 08:09:09;;;;;;;1999.90;999.90;;;18.20;88.30;;;;;;5030910;28;20063;-87
2022/06/08 08:11:35;;;;;;;1999.90;999.90;;;18.40;85.90;;;;;;5016360;28;20113;-88
2022/06/08 08:14:01;;;;;;;1999.90;999.90;;;18.40;70.80;;;;;;5026370;28;20080;-88
2022/06/08 08:16:26;;;;;;;1999.90;999.90;;;18.70;79.70;;;;;;5011205;28;20033;-88
2022/06/08 08:18:52;;;;;;;1999.90;999.90;;;18.80;69.90;;;;;;5025525;28;20074;-87
2022/06/08 08:21:18;;;;;;;1999.90;999.90;;;18.90;78.70;;;;;;5032149;28;20032;-88
2022/06/08 08:23:43;;;;;;;1999.90;999.90;;;19.00;77.40;;;;;;5030229;28;20029;-86
2022/06/08 08:26:09;;;;;;;1999.90;999.90;;;19.10;69.20;;;;;;5032248;28;20041;-87
2022/06/08 08:28:34;;;;;;;1999.90;999.90;;;19.40;68.10;;;;;;5028104;28;20033;-88
2022/06/08 08:31:00;;;;;;;1999.90;999.90;;;19.30;76.70;;;;;;5029436;28;20116;-87
2022/06/08 08:33:26;;;;;;;1999.90;999.90;;;19.50;71.90;;;;;;5026285;28;20029;-88
2022/06/08 08:35:52;;;;;;;1999.90;999.90;;;19.50;66.50;;;;;;5006044;28;20029;-87
2022/06/08 08:38:19;;;;;;;1999.90;999.90;;;19.90;63.90;;;;;;5027264;28;20040;-87
2022/06/08 08:40:52;;;;;;;1999.90;840.88;;;20.10;61.70;;;;;;5037867;28;20496;-87
2022/06/08 08:43:28;;;;;;;1999.90;999.90;;;20.00;59.40;;;;;;5032292;28;20037;-88
2022/06/08 08:46:11;;;;;;;1999.90;999.90;;;20.00;62.40;;;;;;5032449;28;20251;-87
2022/06/08 08:48:52;;;;;;;1999.90;999.90;;;20.30;67.90;;;;;;5039716;28;20078;-87
2022/06/08 08:51:31;;;;;;;1999.90;556.53;;;20.80;62.30;;;;;;5034829;28;20025;-87
2022/06/08 08:54:19;;;;;;;1999.90;999.90;;;20.50;57.40;;;;;;5028151;28;20692;-87
2022/06/08 08:56:44;;;;;;;1999.90;711.22;;;20.50;62.70;;;;;;5026802;28;20036;-88
2022/06/08 08:59:16;;;;;;;1999.90;999.90;;;20.40;57.10;;;;;;5024831;28;20627;-87
2022/06/08 09:01:45;;;;;;;1999.90;999.90;;;20.30;59.20;;;;;;5030195;28;20037;-87
2022/06/08 09:04:33;;;;;;;1999.90;953.67;;;21.00;57.60;;;;;;5032662;28;20033;-87
2022/06/08 09:07:16;;;;;;;1999.90;846.40;;;21.10;50.10;;;;;;5036563;28;20397;-87
2022/06/08 09:09:43;;;;;;;1999.90;891.25;;;21.50;52.20;;;;;;5016690;28;20400;-87
2022/06/08 09:12:18;;;;;;;1999.90;999.90;;;21.20;52.30;;;;;;5039513;28;20033;-88
2022/06/08 09:15:00;;;;;;;1999.90;770.85;;;22.00;54.00;;;;;;5018363;28;20021;-87
2022/06/08 09:17:38;;;;;;;1999.90;709.97;;;22.20;51.00;;;;;;5036813;28;20036;-87
2022/06/08 09:20:27;;;;;;;1999.90;788.33;;;21.50;59.50;;;;;;5036940;28;20365;-87
2022/06/08 09:22:56;;;;;;;1999.90;772.75;;;21.50;54.40;;;;;;5031619;28;20385;-87
2022/06/08 09:25:38;;;;;;;1999.90;803.83;;;21.30;51.00;;;;;;5022080;28;20108;-87
2022/06/08 09:28:23;;;;;;;1999.90;999.90;;;21.30;50.10;;;;;;5020305;28;20037;-87
2022/06/08 09:30:50;;;;;;;1999.90;999.90;;;21.50;54.10;;;;;;5010287;28;20095;-87
2022/06/08 09:33:26;;;;;;;1999.90;753.40;;;22.00;55.40;;;;;;5018582;28;20030;-87
2022/06/08 09:35:58;;;;;;;1999.90;960.45;;;21.70;53.00;;;;;;5036749;28;20124;-87
2022/06/08 09:38:26;;;;;;;1999.90;900.47;;;22.00;46.10;;;;;;5039177;28;20028;-86
2022/06/08 09:41:14;;;;;;;1999.90;784.22;;;21.80;51.40;;;;;;5032939;28;20037;-87
2022/06/08 09:43:55;;;;;;;1999.90;838.22;;;20.80;58.10;;;;;;5040151;28;20017;-87
2022/06/08 09:53:19;;;;;;;1999.90;999.90;;;21.80;50.20;;;;;;5030916;28;20508;-87
2022/06/08 09:56:00;;;;;;;1999.90;731.80;;;21.90;50.70;;;;;;5028708;28;20035;-87
2022/06/08 09:58:59;;;;;;;1999.90;888.53;;;21.90;53.60;;;;;;5022137;28;20025;-87
2022/06/08 10:01:36;;;;;;;1999.90;999.90;;;21.70;49.20;;;;;;5027514;28;20474;-86
2022/06/08 10:04:33;;;;;;;1999.90;906.88;;;22.10;48.20;;;;;;5023136;28;20014;-87
2022/06/08 10:07:14;;;;;;;1999.90;836.17;;;22.40;48.90;;;;;;5039230;28;20155;-87
2022/06/08 10:09:58;;;;;;;1999.90;719.47;;;22.70;51.40;;;;;;5037028;28;20115;-87
2022/06/08 10:12:43;;;;;;;1999.90;814.40;;;22.70;50.40;;;;;;5040542;28;20147;-86
2022/06/08 10:15:14;;;;;;;1999.90;973.75;;;23.00;47.80;;;;;;5029995;28;20017;-87
2022/06/08 10:17:53;;;;;;;1999.90;861.95;;;23.30;47.80;;;;;;5026339;28;20026;-87
2022/06/08 10:20:41;;;;;;;1999.90;988.83;;;22.80;51.30;;;;;;5061359;28;20068;-86
2022/06/08 10:23:40;;;;;;;1999.90;955.30;;;22.90;52.40;;;;;;5032165;28;20030;-87
2022/06/08 10:26:19;;;;;;;1999.90;993.20;;;22.50;46.70;;;;;;5024622;28;20025;-88
2022/06/08 10:28:52;;;;;;;1999.90;999.90;;;23.40;51.40;;;;;;5029549;28;20567;-88
2022/06/08 10:31:40;;;;;;;1999.90;999.90;;;22.80;47.70;;;;;;5030740;28;20524;-88
2022/06/08 10:34:19;;;;;;;1999.90;999.90;;;22.50;51.20;;;;;;5026502;28;20083;-88
2022/06/08 10:36:55;;;;;;;1999.90;977.75;;;22.80;53.00;;;;;;5036783;28;20021;-88
2022/06/08 10:39:22;;;;;;;1999.90;999.90;;;23.20;51.80;;;;;;5033299;28;20111;-88
2022/06/08 10:45:02;;;;;;;1999.90;999.90;;;22.70;48.80;;;;;;5041288;28;20618;-87
2022/06/08 10:47:31;;;;;;;1999.90;999.90;;;22.60;49.90;;;;;;5065721;28;20443;-88
2022/06/08 10:50:00;;;;;;;1999.90;999.90;;;23.10;53.30;;;;;;5038894;28;20061;-87
2022/06/08 10:52:47;;;;;;;1999.90;999.90;;;23.00;44.00;;;;;;5036322;28;20022;-88
2022/06/08 10:55:18;;;;;;;1999.90;999.90;;;23.80;45.70;;;;;;5035197;28;20028;-88
2022/06/08 10:57:44;;;;;;;1999.90;999.90;;;24.00;41.60;;;;;;5033823;28;20100;-88
2022/06/08 11:00:21;;;;;;;1999.90;999.90;;;24.10;47.00;;;;;;5039747;28;21408;-85
2022/06/08 11:02:53;;;;;;;1999.90;999.90;;;23.30;52.30;;;;;;5037606;28;20041;-85
2022/06/08 11:05:38;;;;;;;1999.90;999.90;;;24.80;47.50;;;;;;5039306;28;20029;-87
2022/06/08 11:08:07;;;;;;;1999.90;999.90;;;25.30;47.60;;;;;;5035847;28;20029;-87
2022/06/08 11:10:46;;;;;;;1999.90;999.90;;;25.40;38.70;;;;;;5038825;28;20036;-87
2022/06/08 11:13:18;;;;;;;1999.90;999.90;;;25.30;39.80;;;;;;5038875;28;20021;-87
2022/06/08 11:16:07;;;;;;;1999.90;999.90;;;25.80;41.40;;;;;;5038159;28;20021;-87
2022/06/08 11:18:42;;;;;;;1999.90;999.90;;;26.90;36.70;;;;;;5033140;28;20033;-87
2022/06/08 11:21:14;;;;;;;1999.90;999.90;;;27.10;38.80;;;;;;5034511;28;20560;-87
2022/06/08 11:23:47;;;;;;;1999.90;999.90;;;25.80;35.50;;;;;;5034793;28;20632;-87
2022/06/08 11:26:25;;;;;;;1999.90;999.90;;;24.40;39.30;;;;;;5033134;28;20032;-88
2022/06/08 11:28:55;;;;;;;1999.90;999.90;;;24.30;39.80;;;;;;5029583;28;20764;-87
2022/06/08 11:31:27;;;;;;;1999.90;999.90;;;24.90;40.70;;;;;;5026111;28;20332;-87
2022/06/08 11:34:20;;;;;;;1999.90;999.90;;;25.70;40.80;;;;;;5025633;28;20060;-87
2022/06/08 11:37:06;;;;;;;1999.90;999.90;;;27.40;34.40;;;;;;5031624;28;20029;-88
2022/06/08 11:39:44;;;;;;;1999.90;999.90;;;26.60;36.90;;;;;;5073998;28;20021;-87
2022/06/08 11:42:29;;;;;;;1999.90;999.90;;;25.00;36.40;;;;;;5042163;28;20060;-88
2022/06/08 11:45:12;;;;;;;1999.90;999.90;;;25.80;37.60;;;;;;5040920;28;20028;-86
2022/06/08 11:47:49;;;;;;;1999.90;999.90;;;26.60;33.00;;;;;;5036779;28;20040;-88
2022/06/08 11:50:17;;;;;;;1999.90;999.90;;;26.50;33.30;;;;;;5034540;28;20021;-87
2022/06/08 11:52:46;;;;;;;1999.90;999.90;;;26.70;33.30;;;;;;5034398;28;20020;-87
2022/06/08 11:55:14;;;;;;;1999.90;999.90;;;28.40;31.00;;;;;;5034987;28;20044;-87
2022/06/08 11:57:47;;;;;;;1999.90;999.90;;;27.70;32.70;;;;;;5028061;28;20033;-87
2022/06/08 12:00:19;;;;;;;1999.90;999.90;;;28.70;29.60;;;;;;5028050;28;20044;-87
2022/06/08 12:02:49;;;;;;;1999.90;999.90;;;27.70;29.90;;;;;;5032538;28;20017;-87
2022/06/08 12:05:21;;;;;;;1999.90;999.90;;;25.30;31.80;;;;;;5042684;28;20033;-87
2022/06/08 12:08:11;;;;;;;1999.90;999.90;;;26.90;34.80;;;;;;5034592;28;20092;-88
2022/06/08 12:10:37;;;;;;;1999.90;999.90;;;27.40;30.30;;;;;;5033365;28;20032;-87
2022/06/08 12:13:13;;;;;;;1999.90;999.90;;;26.60;29.50;;;;;;5037492;28;20029;-88
2022/06/08 12:15:51;;;;;;;1999.90;999.90;;;26.90;31.00;;;;;;5037752;28;20133;-88
2022/06/08 12:18:37;;;;;;;1999.90;999.90;;;26.60;32.00;;;;;;5032669;28;20119;-87
2022/06/08 12:21:09;;;;;;;1999.90;999.90;;;26.40;30.90;;;;;;5032084;28;20036;-87
2022/06/08 12:23:44;;;;;;;1999.90;999.90;;;26.60;34.70;;;;;;5031721;28;20024;-88
2022/06/08 12:26:17;;;;;;;1999.90;999.90;;;27.60;29.50;;;;;;5032006;28;20021;-89
2022/06/08 12:29:01;;;;;;;1999.90;999.90;;;27.70;34.10;;;;;;5029725;28;20587;-88
2022/06/08 12:31:31;;;;;;;1999.90;999.90;;;26.60;32.90;;;;;;5028050;28;20120;-87
2022/06/08 12:34:17;;;;;;;1999.90;999.90;;;26.90;29.70;;;;;;5031104;28;20110;-87
2022/06/08 12:36:42;;;;;;;1999.90;999.90;;;27.20;32.40;;;;;;5045161;28;20519;-87